Time;durP1;ratioP1;P1;durP2;ratioP2;P2;SDS_P1;SDS_P2;PMS_P1;PMS_P2;Temp;Humidity;BMP_temperature;BMP_pressure;BME280_temperature;BME280_humidity;BME280_pressure;Samples;Min_cycle;Max_cycle;Signal;HPM_P1;HPM_P2
2022/11/18 00:02:17;;;;;;;1999.90;999.90;;;8.90;99.90;;;;;;4990131;28;20446;-66
2022/11/18 00:04:44;;;;;;;1999.90;999.90;;;8.90;99.90;;;;;;4990087;28;20470;-69
2022/11/18 00:07:10;;;;;;;1999.90;999.90;;;8.90;99.90;;;;;;4990209;28;20447;-67
2022/11/18 00:09:37;;;;;;;1999.90;999.90;;;8.90;99.90;;;;;;4990540;28;20450;-68
2022/11/18 00:14:49;;;;;;;1999.90;999.90;;;8.90;99.90;;;;;;4990313;28;20554;-68
2022/11/18 00:17:16;;;;;;;1999.90;999.90;;;9.00;99.90;;;;;;4990041;28;20453;-68
2022/11/18 00:19:43;;;;;;;1999.90;999.90;;;9.00;99.90;;;;;;4990408;28;20454;-68
2022/11/18 00:22:13;;;;;;;1999.90;999.90;;;9.00;99.90;;;;;;4989615;28;20446;-68
2022/11/18 00:24:40;;;;;;;1999.90;999.90;;;9.00;99.90;;;;;;4990244;28;20470;-68
2022/11/18 00:27:08;;;;;;;1999.90;999.90;;;9.00;99.90;;;;;;4989896;28;20450;-68
2022/11/18 00:29:35;;;;;;;1999.90;999.90;;;9.00;99.90;;;;;;4990419;28;20443;-67
2022/11/18 00:32:01;;;;;;;1999.90;999.90;;;9.00;99.90;;;;;;4990113;28;20447;-67
2022/11/18 00:34:28;;;;;;;1999.90;999.90;;;9.00;99.90;;;;;;4989796;28;20872;-69
2022/11/18 00:36:55;;;;;;;1999.90;999.90;;;9.00;99.90;;;;;;4990213;28;20828;-67
2022/11/18 00:39:22;;;;;;;1999.90;999.90;;;9.00;99.90;;;;;;4989709;28;20487;-68
2022/11/18 00:44:34;;;;;;;1999.90;999.90;;;9.00;99.90;;;;;;4989789;28;20458;-69
2022/11/18 00:47:01;;;;;;;1999.90;999.90;;;9.10;99.90;;;;;;4990369;28;20457;-69
2022/11/18 00:49:28;;;;;;;1999.90;999.90;;;9.00;99.90;;;;;;4990008;28;20470;-68
2022/11/18 00:51:55;;;;;;;1999.90;999.90;;;9.10;99.90;;;;;;4989990;28;20450;-70
2022/11/18 00:54:21;;;;;;;1999.90;999.90;;;9.10;99.90;;;;;;4990216;28;20471;-68
2022/11/18 00:56:48;;;;;;;1999.90;999.90;;;9.10;99.90;;;;;;4990066;28;20456;-67
2022/11/18 00:59:15;;;;;;;1999.90;999.90;;;9.10;99.90;;;;;;4990410;28;20487;-69
2022/11/18 01:01:43;;;;;;;1999.90;999.90;;;9.10;99.90;;;;;;4989593;28;20820;-68
2022/11/18 01:04:10;;;;;;;1999.90;999.90;;;9.10;99.90;;;;;;4989957;28;20470;-68
2022/11/18 01:06:37;;;;;;;1999.90;999.90;;;9.10;99.90;;;;;;4989612;28;20476;-68
2022/11/18 01:09:04;;;;;;;1999.90;999.90;;;9.10;99.90;;;;;;4989946;28;20451;-68
2022/11/18 01:14:14;;;;;;;1999.90;999.90;;;9.00;99.90;;;;;;4992301;28;20458;-68
2022/11/18 01:16:49;;;;;;;1999.90;999.90;;;9.00;99.90;;;;;;4993368;28;20457;-68
2022/11/18 01:19:16;;;;;;;1999.90;999.90;;;9.10;99.90;;;;;;4993243;28;20486;-68
2022/11/18 01:21:43;;;;;;;1999.90;999.90;;;9.10;99.90;;;;;;4993448;28;20465;-68
2022/11/18 01:24:10;;;;;;;1999.90;999.90;;;9.00;99.90;;;;;;4993108;28;20481;-68
2022/11/18 01:26:37;;;;;;;1999.90;999.90;;;9.10;99.90;;;;;;4993595;28;20455;-67
2022/11/18 01:29:03;;;;;;;1999.90;999.90;;;9.00;99.90;;;;;;4993126;28;20450;-68
2022/11/18 01:31:30;;;;;;;1999.90;999.90;;;9.00;99.90;;;;;;4993240;28;20447;-67
2022/11/18 01:33:58;;;;;;;1999.90;999.90;;;9.10;99.90;;;;;;4992442;28;20474;-67
2022/11/18 01:36:27;;;;;;;1999.90;999.90;;;9.10;99.90;;;;;;4993433;28;20461;-68
2022/11/18 01:38:55;;;;;;;1999.90;999.90;;;9.10;99.90;;;;;;4992887;28;20485;-69
2022/11/18 01:41:24;;;;;;;1999.90;999.90;;;9.10;99.90;;;;;;4993011;28;20451;-68
2022/11/18 01:43:54;;;;;;;1999.90;999.90;;;9.00;99.90;;;;;;4992920;28;20540;-67
2022/11/18 01:46:22;;;;;;;1999.90;999.90;;;9.10;99.90;;;;;;4992580;28;20446;-68
2022/11/18 01:48:53;;;;;;;1999.90;999.90;;;9.10;99.90;;;;;;4992855;28;20457;-69
2022/11/18 01:51:25;;;;;;;1999.90;999.90;;;9.10;99.90;;;;;;4992469;28;20443;-68
2022/11/18 01:53:58;;;;;;;1999.90;999.90;;;9.10;99.90;;;;;;4992584;28;20985;-68
2022/11/18 01:56:31;;;;;;;1999.90;999.90;;;9.10;99.90;;;;;;4992472;28;20457;-67
2022/11/18 01:59:03;;;;;;;1999.90;999.90;;;9.10;99.90;;;;;;4992668;28;20479;-68
2022/11/18 02:01:30;;;;;;;1999.90;999.90;;;9.10;99.90;;;;;;4992391;28;20447;-69
2022/11/18 02:03:57;;;;;;;1999.90;999.90;;;9.10;99.90;;;;;;4992607;28;20475;-68
2022/11/18 02:06:25;;;;;;;1999.90;999.90;;;9.10;99.90;;;;;;4992651;28;20818;-68
2022/11/18 02:08:52;;;;;;;1999.90;999.90;;;9.10;99.90;;;;;;4992543;28;20451;-68
2022/11/18 02:14:06;;;;;;;1999.90;999.90;;;9.00;99.90;;;;;;4992039;28;20449;-69
2022/11/18 02:16:42;;;;;;;1999.90;999.90;;;9.00;99.90;;;;;;4992590;28;20451;-69
2022/11/18 02:19:24;;;;;;;1999.90;999.90;;;9.00;99.90;;;;;;4992042;28;20486;-67
2022/11/18 02:22:03;;;;;;;1999.90;999.90;;;9.00;99.90;;;;;;4992020;28;20446;-67
2022/11/18 02:24:42;;;;;;;1999.90;999.90;;;9.00;99.90;;;;;;4991288;28;20474;-67
2022/11/18 02:27:48;;;;;;;1999.90;999.90;;;9.00;99.90;;;;;;4992392;28;21226;-68
2022/11/18 02:30:18;;;;;;;1999.90;999.90;;;9.00;99.90;;;;;;4991770;28;20439;-68
2022/11/18 02:32:53;;;;;;;1999.90;999.90;;;9.00;99.90;;;;;;4991944;28;20457;-68
2022/11/18 02:35:26;;;;;;;1999.90;999.90;;;9.00;99.90;;;;;;4991891;28;20466;-68
2022/11/18 02:37:57;;;;;;;1999.90;999.90;;;9.00;99.90;;;;;;4992246;28;20454;-69
2022/11/18 02:40:27;;;;;;;1999.90;999.90;;;9.10;99.90;;;;;;4991746;28;20454;-68
2022/11/18 02:43:01;;;;;;;1999.90;999.90;;;9.00;99.90;;;;;;4991780;28;20948;-68
2022/11/18 02:45:31;;;;;;;1999.90;999.90;;;9.00;99.90;;;;;;4991490;28;20497;-68
2022/11/18 02:48:02;;;;;;;1999.90;999.90;;;9.00;99.90;;;;;;4991901;28;20454;-70
2022/11/18 02:50:30;;;;;;;1999.90;999.90;;;9.00;99.90;;;;;;4992168;28;20824;-68
2022/11/18 02:53:00;;;;;;;1999.90;999.90;;;9.00;99.90;;;;;;4991244;28;20458;-67
2022/11/18 02:55:30;;;;;;;1999.90;999.90;;;9.00;99.90;;;;;;4991972;28;20836;-67
2022/11/18 02:57:57;;;;;;;1999.90;999.90;;;9.00;99.90;;;;;;4991360;28;20447;-68
2022/11/18 03:00:24;;;;;;;1999.90;999.90;;;9.00;99.90;;;;;;4991742;28;20535;-68
2022/11/18 03:02:52;;;;;;;1999.90;999.90;;;8.90;99.90;;;;;;4991095;28;20945;-68
2022/11/18 03:05:27;;;;;;;1999.90;999.90;;;8.90;99.90;;;;;;4991868;28;20474;-67
2022/11/18 03:08:01;;;;;;;1999.90;999.90;;;8.90;99.90;;;;;;4991269;28;20450;-68
2022/11/18 03:10:36;;;;;;;1999.90;999.90;;;9.00;99.90;;;;;;4991659;28;20450;-68
2022/11/18 03:13:11;;;;;;;1999.90;999.90;;;9.00;99.90;;;;;;4990956;28;20457;-69
2022/11/18 03:15:48;;;;;;;1999.90;999.90;;;8.90;99.90;;;;;;4991412;28;20450;-69
2022/11/18 03:18:25;;;;;;;1999.90;999.90;;;8.90;99.90;;;;;;4991184;28;20450;-68
2022/11/18 03:20:56;;;;;;;1999.90;999.90;;;8.80;99.90;;;;;;4991183;28;20465;-68
2022/11/18 03:23:30;;;;;;;1999.90;999.90;;;8.80;99.90;;;;;;4991016;28;20442;-67
2022/11/18 03:26:02;;;;;;;1999.90;999.90;;;8.80;99.90;;;;;;4991140;28;20474;-67
2022/11/18 03:28:35;;;;;;;1999.90;999.90;;;8.70;99.90;;;;;;4991402;28;20469;-68
2022/11/18 03:31:11;;;;;;;1999.90;999.90;;;8.70;99.90;;;;;;4990529;28;20447;-66
2022/11/18 03:33:45;;;;;;;1999.90;999.90;;;8.70;99.90;;;;;;4990769;28;20866;-67
2022/11/18 03:36:15;;;;;;;1999.90;999.90;;;8.70;99.90;;;;;;4990543;28;20451;-68
2022/11/18 03:38:47;;;;;;;1999.90;999.90;;;8.70;99.90;;;;;;4991092;28;20488;-69
2022/11/18 03:41:16;;;;;;;1999.90;999.90;;;8.60;99.90;;;;;;4990589;28;20450;-69
2022/11/18 03:43:48;;;;;;;1999.90;999.90;;;8.60;99.90;;;;;;4990777;28;20474;-68
2022/11/18 03:46:19;;;;;;;1999.90;999.90;;;8.60;99.90;;;;;;4990303;28;20447;-68
2022/11/18 03:48:51;;;;;;;1999.90;999.90;;;8.60;99.90;;;;;;4990832;28;20443;-67
2022/11/18 03:51:22;;;;;;;1999.90;999.90;;;8.60;99.90;;;;;;4990635;28;20446;-68
2022/11/18 03:53:54;;;;;;;1999.90;999.90;;;8.60;99.90;;;;;;4990303;28;20482;-68
2022/11/18 03:56:25;;;;;;;1999.90;999.90;;;8.60;99.90;;;;;;4990685;28;20442;-68
2022/11/18 03:58:55;;;;;;;1999.90;999.90;;;8.60;99.90;;;;;;4990307;28;20493;-67
2022/11/18 04:01:28;;;;;;;1999.90;999.90;;;8.60;99.90;;;;;;4990327;28;20941;-68
2022/11/18 04:03:56;;;;;;;1999.90;999.90;;;8.60;99.90;;;;;;4990214;28;20467;-68
2022/11/18 04:06:30;;;;;;;1999.90;999.90;;;8.60;99.90;;;;;;4990729;28;20831;-68
2022/11/18 04:09:01;;;;;;;1999.90;999.90;;;8.60;99.90;;;;;;4990212;28;20446;-69
2022/11/18 04:14:19;;;;;;;1999.90;999.90;;;8.50;99.90;;;;;;4990098;28;20489;-68
2022/11/18 04:16:51;;;;;;;1999.90;999.90;;;8.50;99.90;;;;;;4990479;28;20454;-68
2022/11/18 04:19:19;;;;;;;1999.90;999.90;;;8.40;99.90;;;;;;4990000;28;20486;-69
2022/11/18 04:21:47;;;;;;;1999.90;999.90;;;8.40;99.90;;;;;;4990005;28;20447;-68
2022/11/18 04:24:14;;;;;;;1999.90;999.90;;;8.40;99.90;;;;;;4990400;28;20470;-68
2022/11/18 04:26:41;;;;;;;1999.90;999.90;;;8.40;99.90;;;;;;4989937;28;20952;-68
2022/11/18 04:29:08;;;;;;;1999.90;999.90;;;8.40;99.90;;;;;;4990469;28;20454;-68
2022/11/18 04:31:34;;;;;;;1999.90;999.90;;;8.50;99.90;;;;;;4989760;28;20454;-69
2022/11/18 04:34:01;;;;;;;1999.90;999.90;;;8.50;99.90;;;;;;4990163;28;20481;-69
2022/11/18 04:36:29;;;;;;;1999.90;999.90;;;8.50;99.90;;;;;;4990094;28;20450;-68
2022/11/18 04:38:56;;;;;;;1999.90;999.90;;;8.50;99.90;;;;;;4990425;28;20493;-68
2022/11/18 04:41:54;;;;;;;1999.90;999.90;;;8.50;99.90;;;;;;4990036;28;21083;-69
2022/11/18 04:44:11;;;;;;;1999.90;999.90;;;8.50;99.90;;;;;;4990137;28;20888;-68
2022/11/18 04:46:39;;;;;;;1999.90;999.90;;;8.50;99.90;;;;;;4990001;28;20545;-68
2022/11/18 04:49:06;;;;;;;1999.90;999.90;;;8.50;99.90;;;;;;4992652;28;20446;-67
2022/11/18 04:51:34;;;;;;;1999.90;999.90;;;8.50;99.90;;;;;;4994235;28;20455;-69
2022/11/18 04:54:02;;;;;;;1999.90;999.90;;;8.40;99.90;;;;;;4993531;28;20506;-70
2022/11/18 04:56:29;;;;;;;1999.90;999.90;;;8.40;99.90;;;;;;4994297;28;20840;-68
2022/11/18 04:58:56;;;;;;;1999.90;999.90;;;8.40;99.90;;;;;;4993677;28;20485;-68
2022/11/18 05:01:23;;;;;;;1999.90;999.90;;;8.40;99.90;;;;;;4993930;28;20941;-67
2022/11/18 05:03:50;;;;;;;1999.90;999.90;;;8.40;99.90;;;;;;4993764;28;20814;-69
2022/11/18 05:06:16;;;;;;;1999.90;999.90;;;8.40;99.90;;;;;;4994094;28;20456;-68
2022/11/18 05:08:44;;;;;;;1999.90;999.90;;;8.30;99.90;;;;;;4994394;28;20442;-68
2022/11/18 05:13:52;;;;;;;1999.90;999.90;;;8.40;99.90;;;;;;4961091;28;20509;-69
2022/11/18 05:16:19;;;;;;;1999.90;999.90;;;8.40;99.90;;;;;;4993733;28;20461;-68
2022/11/18 05:18:46;;;;;;;1999.90;999.90;;;8.40;99.90;;;;;;4994710;28;20473;-68
2022/11/18 05:21:13;;;;;;;1999.90;999.90;;;8.30;99.90;;;;;;4992915;28;20442;-68
2022/11/18 05:23:40;;;;;;;1999.90;999.90;;;8.20;99.90;;;;;;4989524;28;21023;-68
2022/11/18 05:26:10;;;;;;;1999.90;999.90;;;8.20;99.90;;;;;;4992699;28;20443;-68
2022/11/18 05:28:37;;;;;;;1999.90;999.90;;;8.20;99.90;;;;;;4993243;28;20459;-67
2022/11/18 05:31:07;;;;;;;1999.90;999.90;;;8.20;99.90;;;;;;4992994;28;20442;-67
2022/11/18 05:33:34;;;;;;;1999.90;999.90;;;8.20;99.90;;;;;;4993132;28;20470;-67
2022/11/18 05:36:03;;;;;;;1999.90;999.90;;;8.20;99.90;;;;;;4993440;28;20442;-69
2022/11/18 05:38:32;;;;;;;1999.90;999.90;;;8.10;99.90;;;;;;4993142;28;20541;-68
2022/11/18 05:40:58;;;;;;;1999.90;999.90;;;8.10;99.90;;;;;;4992994;28;20485;-69
2022/11/18 05:43:26;;;;;;;1999.90;999.90;;;8.10;99.90;;;;;;4991307;28;20447;-67
2022/11/18 05:45:52;;;;;;;1999.90;999.90;;;8.10;99.90;;;;;;4990983;28;20458;-67
2022/11/18 05:48:20;;;;;;;1999.90;999.90;;;8.10;99.90;;;;;;4992321;28;20937;-68
2022/11/18 05:50:48;;;;;;;1999.90;999.90;;;8.10;99.90;;;;;;4992739;28;20522;-67
2022/11/18 05:53:16;;;;;;;1999.90;999.90;;;8.10;99.90;;;;;;4992424;28;20458;-68
2022/11/18 05:55:51;;;;;;;1999.90;999.90;;;8.10;99.90;;;;;;4991725;28;20821;-67
2022/11/18 05:58:17;;;;;;;1999.90;999.90;;;8.00;99.90;;;;;;4989986;28;21155;-67
2022/11/18 06:00:49;;;;;;;1999.90;999.90;;;8.10;99.90;;;;;;4979911;28;20489;-68
2022/11/18 06:03:21;;;;;;;1999.90;999.90;;;8.00;99.90;;;;;;4983454;28;20447;-67
2022/11/18 06:05:48;;;;;;;1999.90;999.90;;;8.10;99.90;;;;;;4979788;28;20454;-68
2022/11/18 06:08:18;;;;;;;1999.90;999.90;;;8.10;99.90;;;;;;4982237;28;20455;-67
2022/11/18 06:10:46;;;;;;;1999.90;999.90;;;8.00;99.90;;;;;;4983855;28;20447;-67
2022/11/18 06:13:17;;;;;;;1999.90;999.90;;;8.10;99.90;;;;;;4984428;28;20485;-67
2022/11/18 06:15:46;;;;;;;1999.90;999.90;;;8.10;99.90;;;;;;4984481;28;20446;-66
2022/11/18 06:18:18;;;;;;;1999.90;999.90;;;8.00;99.90;;;;;;4989473;28;20443;-68
2022/11/18 06:20:45;;;;;;;1999.90;999.90;;;8.00;99.90;;;;;;4986643;28;20498;-67
2022/11/18 06:23:13;;;;;;;1999.90;999.90;;;8.10;99.90;;;;;;4990990;28;20458;-67
2022/11/18 06:25:40;;;;;;;1999.90;999.90;;;8.10;99.90;;;;;;4992337;28;20825;-69
2022/11/18 06:28:10;;;;;;;1999.90;999.90;;;8.10;99.90;;;;;;4991954;28;20443;-67
2022/11/18 06:30:37;;;;;;;1999.90;999.90;;;8.10;99.90;;;;;;4989907;28;20442;-68
2022/11/18 06:33:05;;;;;;;1999.90;999.90;;;8.10;99.90;;;;;;4991719;28;20462;-67
2022/11/18 06:35:32;;;;;;;1999.90;999.90;;;8.10;99.90;;;;;;4991763;28;20467;-67
2022/11/18 06:37:59;;;;;;;1999.90;999.90;;;8.20;99.90;;;;;;4990199;28;20447;-67
2022/11/18 06:40:26;;;;;;;1999.90;999.90;;;8.10;99.90;;;;;;4991321;28;20973;-68
2022/11/18 06:46:54;;;;;;;1999.90;999.90;;;8.10;99.90;;;;;;4955829;28;20426;-67
2022/11/18 06:48:32;;;;;;;1999.90;999.90;;;8.20;99.90;;;;;;4991640;28;20439;-68
2022/11/18 06:50:59;;;;;;;1999.90;999.90;;;8.20;99.90;;;;;;4991096;28;20439;-67
2022/11/18 06:53:26;;;;;;;1999.90;999.90;;;8.20;99.90;;;;;;4990725;28;20450;-67
2022/11/18 06:55:53;;;;;;;1999.90;999.90;;;8.20;99.90;;;;;;4990272;28;20458;-68
2022/11/18 06:58:19;;;;;;;1999.90;999.90;;;8.20;99.90;;;;;;4987831;28;20930;-68
2022/11/18 07:00:46;;;;;;;1999.90;999.90;;;8.30;99.90;;;;;;4990461;28;20489;-69
2022/11/18 07:03:13;;;;;;;1999.90;999.90;;;8.30;99.90;;;;;;4990171;28;20454;-68
2022/11/18 07:05:41;;;;;;;1999.90;999.90;;;8.30;99.90;;;;;;4990770;28;20453;-68
2022/11/18 07:08:08;;;;;;;1999.90;999.90;;;8.20;99.90;;;;;;4990281;28;20458;-68
2022/11/18 07:10:34;;;;;;;1999.90;999.90;;;8.20;99.90;;;;;;4990112;28;21175;-67
2022/11/18 07:13:01;;;;;;;1999.90;999.90;;;8.20;99.90;;;;;;4990021;28;20933;-68
2022/11/18 07:15:28;;;;;;;1999.90;999.90;;;8.30;99.90;;;;;;4990592;28;21067;-67
2022/11/18 07:17:55;;;;;;;1999.90;999.90;;;8.30;99.90;;;;;;4990448;28;20454;-67
2022/11/18 07:20:21;;;;;;;1999.90;999.90;;;8.30;99.90;;;;;;4990707;28;20483;-67
2022/11/18 07:22:52;;;;;;;1999.90;999.90;;;8.30;99.90;;;;;;4990322;28;20459;-69
2022/11/18 07:25:19;;;;;;;1999.90;999.90;;;8.40;99.90;;;;;;4990507;28;20471;-67
2022/11/18 07:27:46;;;;;;;1999.90;999.90;;;8.40;99.90;;;;;;4990559;28;20478;-68
2022/11/18 07:30:13;;;;;;;1999.90;999.90;;;8.40;99.90;;;;;;4986121;28;20451;-67
2022/11/18 07:32:40;;;;;;;1999.90;999.90;;;8.40;99.90;;;;;;4985327;28;20454;-67
2022/11/18 07:35:08;;;;;;;1999.90;999.90;;;8.50;99.90;;;;;;4989984;28;20838;-68
2022/11/18 07:37:34;;;;;;;1999.90;999.90;;;8.50;99.90;;;;;;4990550;28;20450;-68
2022/11/18 07:40:02;;;;;;;1999.90;999.90;;;8.50;99.90;;;;;;4990028;28;20505;-68
2022/11/18 07:42:41;;;;;;;1999.90;999.90;;;8.50;99.90;;;;;;4990026;28;20451;-68
2022/11/18 07:45:09;;;;;;;1999.90;999.90;;;8.50;99.90;;;;;;4990218;28;20857;-68
2022/11/18 07:47:36;;;;;;;1999.90;999.90;;;8.50;99.90;;;;;;4989813;28;20474;-69
2022/11/18 07:50:03;;;;;;;1999.90;999.90;;;8.60;99.90;;;;;;4989977;28;20455;-68
2022/11/18 07:52:30;;;;;;;1999.90;999.90;;;8.60;99.90;;;;;;4952599;28;1079465;-68
2022/11/18 07:54:57;;;;;;;1999.90;999.90;;;8.60;99.90;;;;;;4987976;28;20223;-69
2022/11/18 07:57:25;;;;;;;1999.90;999.90;;;8.70;99.90;;;;;;4990098;28;20450;-67
2022/11/18 07:59:51;;;;;;;1999.90;999.90;;;8.80;99.90;;;;;;4990630;28;20479;-67
2022/11/18 08:02:18;;;;;;;1999.90;999.90;;;8.90;99.90;;;;;;4990049;28;20512;-69
2022/11/18 08:04:45;;;;;;;1999.90;999.90;;;8.80;99.90;;;;;;4990534;28;20981;-69
2022/11/18 08:07:12;;;;;;;1999.90;999.90;;;8.80;99.90;;;;;;4985859;28;20450;-68
2022/11/18 08:09:38;;;;;;;1999.90;999.90;;;8.80;99.90;;;;;;4984867;28;20459;-68
2022/11/18 08:12:06;;;;;;;1999.90;999.90;;;8.70;99.90;;;;;;4988992;28;20949;-69
2022/11/18 08:14:34;;;;;;;1999.90;999.90;;;8.70;99.90;;;;;;4989331;28;20842;-68
2022/11/18 08:17:01;;;;;;;1999.90;999.90;;;8.60;99.90;;;;;;4989837;28;20449;-69
2022/11/18 08:19:27;;;;;;;1999.90;999.90;;;8.70;99.90;;;;;;4989144;28;20457;-67
2022/11/18 08:21:54;;;;;;;1999.90;999.90;;;8.70;99.90;;;;;;4988936;28;20443;-67
2022/11/18 08:24:21;;;;;;;1999.90;999.90;;;8.70;99.90;;;;;;4988313;28;20466;-68
2022/11/18 08:26:48;;;;;;;1999.90;999.90;;;8.80;99.90;;;;;;4988464;28;21106;-68
2022/11/18 08:29:15;;;;;;;1999.90;999.90;;;8.80;99.90;;;;;;4990169;28;21181;-68
2022/11/18 08:31:43;;;;;;;1999.90;999.90;;;8.90;99.90;;;;;;4989856;28;20828;-69
2022/11/18 08:34:10;;;;;;;1999.90;999.90;;;8.90;99.90;;;;;;4985589;28;20479;-70
2022/11/18 08:36:38;;;;;;;1999.90;999.90;;;9.00;99.90;;;;;;4989809;28;20479;-67
2022/11/18 08:39:07;;;;;;;1999.90;999.90;;;9.00;99.90;;;;;;4990564;28;20451;-68
2022/11/18 08:41:36;;;;;;;1999.90;999.90;;;8.90;99.90;;;;;;4990104;28;20490;-68
2022/11/18 08:44:04;;;;;;;1999.90;999.90;;;8.90;99.90;;;;;;4990226;28;20470;-66
2022/11/18 08:46:31;;;;;;;1999.90;999.90;;;8.90;99.90;;;;;;4990139;28;20443;-67
2022/11/18 08:48:59;;;;;;;1999.90;999.90;;;9.00;99.90;;;;;;4989746;28;20439;-68
2022/11/18 08:51:26;;;;;;;1999.90;999.90;;;9.00;99.90;;;;;;4989840;28;20442;-67
2022/11/18 08:53:53;;;;;;;1999.90;999.90;;;9.10;99.90;;;;;;4989146;28;20479;-66
2022/11/18 08:56:21;;;;;;;1999.90;999.90;;;9.10;99.90;;;;;;4984463;28;20465;-67
2022/11/18 08:58:48;;;;;;;1999.90;999.90;;;9.10;99.90;;;;;;4990395;28;21003;-68
2022/11/18 09:01:15;;;;;;;1999.90;999.90;;;9.20;99.90;;;;;;4990209;28;20488;-66
2022/11/18 09:03:42;;;;;;;1999.90;999.90;;;9.20;99.90;;;;;;4989437;28;20471;-69
2022/11/18 09:06:13;;;;;;;1999.90;999.90;;;9.30;99.90;;;;;;4990090;28;20450;-68
2022/11/18 09:08:40;;;;;;;1999.90;999.90;;;9.40;99.90;;;;;;4990212;28;20457;-68
2022/11/18 09:11:10;;;;;;;1999.90;999.90;;;9.50;99.90;;;;;;4989557;28;20959;-66
2022/11/18 09:13:37;;;;;;;1999.90;999.90;;;9.70;99.90;;;;;;4989827;28;20471;-67
2022/11/18 09:16:05;;;;;;;1999.90;999.90;;;9.70;99.90;;;;;;4989618;28;20455;-67
2022/11/18 09:18:32;;;;;;;1999.90;999.90;;;9.70;99.90;;;;;;4989947;28;20852;-67
2022/11/18 09:21:01;;;;;;;1999.90;999.90;;;9.70;99.90;;;;;;4989392;28;20482;-67
2022/11/18 09:23:29;;;;;;;1999.90;999.90;;;9.70;99.90;;;;;;4989774;28;20473;-67
2022/11/18 09:25:59;;;;;;;1999.90;999.90;;;9.70;99.90;;;;;;4989567;28;20450;-67
2022/11/18 09:28:26;;;;;;;1999.90;999.90;;;9.70;99.90;;;;;;4989913;28;20465;-67
2022/11/18 09:30:53;;;;;;;1999.90;999.90;;;9.70;99.90;;;;;;4989360;28;20453;-68
2022/11/18 09:33:20;;;;;;;1999.90;999.90;;;9.60;99.90;;;;;;4989699;28;20946;-66
2022/11/18 09:35:47;;;;;;;1999.90;999.90;;;9.50;99.90;;;;;;4992734;28;20965;-68
2022/11/18 09:38:14;;;;;;;1999.90;999.90;;;9.60;99.90;;;;;;4983619;28;20964;-67
2022/11/18 09:40:56;;;;;;;1999.90;999.90;;;9.60;99.90;;;;;;4991896;28;20493;-66
2022/11/18 09:43:33;;;;;;;1999.90;999.90;;;9.60;99.90;;;;;;4971616;28;20531;-66
2022/11/18 09:46:06;;;;;;;1999.90;999.90;;;9.60;99.90;;;;;;4973216;28;20470;-67
2022/11/18 09:51:25;;;;;;;1999.90;999.90;;;9.40;99.90;;;;;;4985497;28;20590;-68
2022/11/18 09:53:51;;;;;;;1999.90;999.90;;;9.30;99.90;;;;;;4991356;28;20498;-69
2022/11/18 09:56:21;;;;;;;1999.90;999.90;;;9.30;99.90;;;;;;4992276;28;20450;-68
2022/11/18 09:58:48;;;;;;;1999.90;999.90;;;9.30;99.90;;;;;;4992254;28;20856;-69
2022/11/18 10:01:20;;;;;;;1999.90;999.90;;;9.40;99.90;;;;;;4991089;28;20493;-67
2022/11/18 10:03:46;;;;;;;1999.90;999.90;;;9.40;99.90;;;;;;4988634;28;20471;-68
2022/11/18 10:06:19;;;;;;;1999.90;999.90;;;9.50;99.90;;;;;;4990429;28;20447;-69
2022/11/18 10:08:58;;;;;;;1999.90;999.90;;;9.50;99.90;;;;;;4991690;28;20446;-68
2022/11/18 10:11:33;;;;;;;1999.90;999.90;;;9.40;99.90;;;;;;4991044;28;20447;-69
2022/11/18 10:14:12;;;;;;;1999.90;999.90;;;9.40;99.90;;;;;;4991451;28;20470;-68
2022/11/18 10:16:48;;;;;;;1999.90;999.90;;;9.30;99.90;;;;;;4991040;28;20463;-68
2022/11/18 10:19:26;;;;;;;1999.90;999.90;;;9.30;99.90;;;;;;4991568;28;20964;-68
2022/11/18 10:22:07;;;;;;;1999.90;999.90;;;9.40;99.90;;;;;;4991195;28;20621;-69
2022/11/18 10:24:40;;;;;;;1999.90;999.90;;;9.50;99.90;;;;;;4987389;28;20479;-68
2022/11/18 10:27:12;;;;;;;1999.90;999.90;;;9.60;99.90;;;;;;4991063;28;20965;-68
2022/11/18 10:29:39;;;;;;;1999.90;999.90;;;9.60;99.90;;;;;;4971376;28;20977;-69
2022/11/18 10:32:08;;;;;;;1999.90;999.90;;;9.60;99.90;;;;;;4971803;28;20444;-67
2022/11/18 10:34:47;;;;;;;1999.90;999.90;;;9.70;99.90;;;;;;4976490;28;21144;-67
2022/11/18 10:37:23;;;;;;;1999.90;999.90;;;9.80;99.90;;;;;;4990753;28;20984;-67
2022/11/18 10:39:51;;;;;;;1999.90;999.90;;;10.00;99.90;;;;;;4990659;28;20454;-67
2022/11/18 10:42:25;;;;;;;1999.90;999.90;;;10.10;99.90;;;;;;4991012;28;20866;-66
2022/11/18 10:44:52;;;;;;;1999.90;999.90;;;10.10;99.90;;;;;;4991080;28;20497;-69
2022/11/18 10:47:25;;;;;;;1999.90;999.90;;;10.10;99.90;;;;;;4989631;28;20465;-67
2022/11/18 10:49:52;;;;;;;1999.90;999.90;;;10.00;99.90;;;;;;4991241;28;20972;-68
2022/11/18 10:52:19;;;;;;;1999.90;999.90;;;9.90;99.90;;;;;;4990041;28;20458;-67
2022/11/18 10:55:06;;;;;;;1999.90;999.90;;;9.90;99.90;;;;;;4990864;28;20471;-69
2022/11/18 10:57:42;;;;;;;1999.90;999.90;;;9.90;99.90;;;;;;4988919;28;20502;-68
2022/11/18 11:00:37;;;;;;;1999.90;999.90;;;10.00;99.90;;;;;;4978056;28;20451;-69
2022/11/18 11:03:23;;;;;;;1999.90;999.90;;;10.00;99.90;;;;;;4987904;28;20469;-68
2022/11/18 11:06:27;;;;;;;1999.90;999.90;;;10.00;99.90;;;;;;4986496;28;20443;-67
2022/11/18 11:08:55;;;;;;;1999.90;999.90;;;10.00;99.90;;;;;;4990077;28;20457;-70
2022/11/18 11:11:25;;;;;;;1999.90;999.90;;;10.00;99.90;;;;;;4990182;28;20470;-68
2022/11/18 11:13:56;;;;;;;1999.90;999.90;;;9.90;99.90;;;;;;4989654;28;20474;-66
2022/11/18 11:16:25;;;;;;;1999.90;999.90;;;9.80;99.90;;;;;;4990504;28;20474;-68
2022/11/18 11:18:56;;;;;;;1999.90;999.90;;;9.80;99.90;;;;;;4990384;28;20468;-68
2022/11/18 11:21:26;;;;;;;1999.90;999.90;;;9.70;99.90;;;;;;4989198;28;20874;-68
2022/11/18 11:23:53;;;;;;;1999.90;999.90;;;9.60;99.90;;;;;;4990248;28;20549;-69
2022/11/18 11:26:24;;;;;;;1999.90;999.90;;;9.60;99.90;;;;;;4986061;28;20542;-67
2022/11/18 11:28:58;;;;;;;1999.90;999.90;;;9.60;99.90;;;;;;4986215;28;20454;-67
2022/11/18 11:31:35;;;;;;;1999.90;999.90;;;9.60;99.90;;;;;;4989295;28;20952;-68
2022/11/18 11:34:10;;;;;;;1999.90;999.90;;;9.60;99.90;;;;;;4990249;28;20470;-66
2022/11/18 11:36:44;;;;;;;1999.90;999.90;;;9.50;99.90;;;;;;4990893;28;20541;-67
2022/11/18 11:39:38;;;;;;;1999.90;999.90;;;9.50;99.90;;;;;;4991129;28;20446;-68
2022/11/18 11:42:14;;;;;;;1999.90;999.90;;;9.60;99.90;;;;;;4976039;28;20872;-68
2022/11/18 11:44:53;;;;;;;1999.90;999.90;;;9.70;99.90;;;;;;4985531;28;20996;-68
2022/11/18 11:50:17;;;;;;;1999.90;999.90;;;9.90;99.90;;;;;;4990822;28;20443;-66
2022/11/18 11:53:00;;;;;;;1999.90;999.90;;;10.00;99.90;;;;;;4988967;28;20450;-68
2022/11/18 11:55:47;;;;;;;1999.90;999.90;;;10.00;99.90;;;;;;4988115;28;20462;-69
2022/11/18 11:58:26;;;;;;;1999.90;999.90;;;10.00;99.90;;;;;;4989158;28;20446;-68
2022/11/18 12:01:02;;;;;;;1999.90;999.90;;;10.00;99.90;;;;;;4987609;28;20492;-68
2022/11/18 12:03:46;;;;;;;1999.90;999.90;;;10.10;99.90;;;;;;4987984;28;20565;-69
2022/11/18 12:06:13;;;;;;;1999.90;999.90;;;10.10;99.90;;;;;;4990729;28;20457;-67
2022/11/18 12:08:55;;;;;;;1999.90;999.90;;;10.10;99.90;;;;;;4991577;28;20451;-67
2022/11/18 12:11:29;;;;;;;1999.90;999.90;;;10.20;99.90;;;;;;4991033;28;20549;-69
2022/11/18 12:14:02;;;;;;;1999.90;999.90;;;10.20;99.90;;;;;;4990294;28;20485;-69
2022/11/18 12:16:37;;;;;;;1999.90;999.90;;;10.30;99.90;;;;;;4990441;28;20858;-68
2022/11/18 12:19:11;;;;;;;1999.90;999.90;;;10.30;99.90;;;;;;4990672;28;20470;-68
2022/11/18 12:22:02;;;;;;;1999.90;999.90;;;10.40;99.90;;;;;;4989911;28;20490;-68
2022/11/18 12:24:35;;;;;;;1999.90;999.90;;;10.50;99.90;;;;;;4990805;28;20475;-68
2022/11/18 12:27:05;;;;;;;1999.90;999.90;;;10.70;99.90;;;;;;4990268;28;20838;-69
2022/11/18 12:29:40;;;;;;;1999.90;999.90;;;10.80;99.90;;;;;;4989100;28;20987;-68
2022/11/18 12:32:26;;;;;;;1999.90;999.90;;;10.70;99.90;;;;;;4989263;28;20454;-68
2022/11/18 12:34:59;;;;;;;1999.90;999.90;;;10.60;99.90;;;;;;4970732;28;21295;-68
2022/11/18 12:37:58;;;;;;;1999.90;999.90;;;10.70;99.90;;;;;;4971778;28;20443;-68
2022/11/18 12:40:40;;;;;;;1999.90;999.90;;;10.70;99.90;;;;;;4976435;28;20450;-69
2022/11/18 12:46:49;;;;;;;1999.90;999.90;;;10.70;99.90;;;;;;4988089;28;20620;-68
2022/11/18 12:49:53;;;;;;;1999.90;999.90;;;10.60;99.90;;;;;;4989017;28;20439;-68
2022/11/18 12:52:47;;;;;;;1999.90;999.90;;;10.50;99.90;;;;;;4989929;28;20446;-68